sensor_id;sensor_type;location;lat;lon;timestamp;pressure;altitude;pressure_sealevel;temperature;humidity
6567;BME280;3317;43.994;22.878;2023-02-28T00:00:24;101898.72;;;7.30;65.46
6567;BME280;3317;43.994;22.878;2023-02-28T00:02:51;101891.47;;;7.17;65.98
6567;BME280;3317;43.994;22.878;2023-02-28T00:05:20;101913.03;;;7.17;66.22
6567;BME280;3317;43.994;22.878;2023-02-28T00:07:48;101921.69;;;7.23;65.95
6567;BME280;3317;43.994;22.878;2023-02-28T00:10:17;101920.72;;;7.24;65.44
6567;BME280;3317;43.994;22.878;2023-02-28T00:12:48;101912.06;;;7.18;64.50
6567;BME280;3317;43.994;22.878;2023-02-28T00:15:15;101919.66;;;7.26;64.50
6567;BME280;3317;43.994;22.878;2023-02-28T00:17:44;101932.16;;;7.27;64.55
6567;BME280;3317;43.994;22.878;2023-02-28T00:20:12;101908.50;;;7.18;63.65
6567;BME280;3317;43.994;22.878;2023-02-28T00:22:41;101932.81;;;7.31;63.29
6567;BME280;3317;43.994;22.878;2023-02-28T00:25:10;101933.66;;;7.31;63.37
6567;BME280;3317;43.994;22.878;2023-02-28T00:27:38;101936.28;;;7.33;63.79
6567;BME280;3317;43.994;22.878;2023-02-28T00:30:09;101933.56;;;7.33;63.80
6567;BME280;3317;43.994;22.878;2023-02-28T00:32:36;101943.41;;;7.34;64.70
6567;BME280;3317;43.994;22.878;2023-02-28T00:35:04;101950.53;;;7.35;64.96
6567;BME280;3317;43.994;22.878;2023-02-28T00:37:32;101953.44;;;7.32;65.37
6567;BME280;3317;43.994;22.878;2023-02-28T00:39:59;101956.66;;;7.37;65.54
6567;BME280;3317;43.994;22.878;2023-02-28T00:42:26;101952.25;;;7.36;65.54
6567;BME280;3317;43.994;22.878;2023-02-28T00:44:53;101955.91;;;7.35;65.80
6567;BME280;3317;43.994;22.878;2023-02-28T00:47:21;101957.63;;;7.36;66.08
6567;BME280;3317;43.994;22.878;2023-02-28T00:49:48;101952.25;;;7.36;65.62
6567;BME280;3317;43.994;22.878;2023-02-28T00:52:15;101953.22;;;7.35;65.67
6567;BME280;3317;43.994;22.878;2023-02-28T00:54:42;101955.91;;;7.35;66.15
6567;BME280;3317;43.994;22.878;2023-02-28T00:57:09;101960.47;;;7.35;66.20
6567;BME280;3317;43.994;22.878;2023-02-28T00:59:36;101957.84;;;7.33;66.16
6567;BME280;3317;43.994;22.878;2023-02-28T01:02:03;101962.41;;;7.32;66.58
6567;BME280;3317;43.994;22.878;2023-02-28T01:04:31;101958.72;;;7.33;66.08
6567;BME280;3317;43.994;22.878;2023-02-28T01:06:58;101957.00;;;7.32;65.40
6567;BME280;3317;43.994;22.878;2023-02-28T01:09:25;101959.59;;;7.34;65.31
6567;BME280;3317;43.994;22.878;2023-02-28T01:11:52;101948.78;;;7.34;64.71
6567;BME280;3317;43.994;22.878;2023-02-28T01:14:19;101952.47;;;7.33;64.42
6567;BME280;3317;43.994;22.878;2023-02-28T01:16:46;101945.34;;;7.32;64.96
6567;BME280;3317;43.994;22.878;2023-02-28T01:19:13;101949.00;;;7.31;64.38
6567;BME280;3317;43.994;22.878;2023-02-28T01:21:41;101950.06;;;7.28;64.28
6567;BME280;3317;43.994;22.878;2023-02-28T01:24:08;101942.09;;;7.27;64.36
6567;BME280;3317;43.994;22.878;2023-02-28T01:26:35;101942.94;;;7.27;63.89
6567;BME280;3317;43.994;22.878;2023-02-28T01:29:02;101926.06;;;7.11;64.12
6567;BME280;3317;43.994;22.878;2023-02-28T01:31:29;101950.50;;;7.22;64.07
6567;BME280;3317;43.994;22.878;2023-02-28T01:33:56;101948.84;;;7.19;64.39
6567;BME280;3317;43.994;22.878;2023-02-28T01:36:24;101950.50;;;7.22;64.42
6567;BME280;3317;43.994;22.878;2023-02-28T01:38:52;101953.28;;;7.21;63.70
6567;BME280;3317;43.994;22.878;2023-02-28T01:41:22;101958.66;;;7.21;63.73
6567;BME280;3317;43.994;22.878;2023-02-28T01:43:58;101950.56;;;7.21;64.25
6567;BME280;3317;43.994;22.878;2023-02-28T01:46:28;101962.34;;;7.19;63.98
6567;BME280;3317;43.994;22.878;2023-02-28T01:49:02;101960.59;;;7.18;63.79
6567;BME280;3317;43.994;22.878;2023-02-28T01:51:35;101961.56;;;7.17;63.89
6567;BME280;3317;43.994;22.878;2023-02-28T01:54:07;101958.88;;;7.17;64.12
6567;BME280;3317;43.994;22.878;2023-02-28T01:56:42;101949.81;;;7.18;63.61
6567;BME280;3317;43.994;22.878;2023-02-28T01:59:12;101954.34;;;7.18;64.10
6567;BME280;3317;43.994;22.878;2023-02-28T02:01:40;101958.78;;;7.19;63.44
6567;BME280;3317;43.994;22.878;2023-02-28T02:04:08;101958.88;;;7.17;64.43
6567;BME280;3317;43.994;22.878;2023-02-28T02:06:38;101956.19;;;7.17;64.54
6567;BME280;3317;43.994;22.878;2023-02-28T02:09:08;101959.84;;;7.16;64.23
6567;BME280;3317;43.994;22.878;2023-02-28T02:11:35;101952.56;;;7.04;65.65
6567;BME280;3317;43.994;22.878;2023-02-28T02:14:18;101970.06;;;7.11;66.11
6567;BME280;3317;43.994;22.878;2023-02-28T02:17:01;101971.44;;;7.04;66.80
6567;BME280;3317;43.994;22.878;2023-02-28T02:19:52;101960.75;;;7.02;66.48
6567;BME280;3317;43.994;22.878;2023-02-28T02:22:51;101957.19;;;7.02;66.37
6567;BME280;3317;43.994;22.878;2023-02-28T02:25:33;101958.25;;;6.99;66.57
6567;BME280;3317;43.994;22.878;2023-02-28T02:34:27;101940.44;;;6.69;68.34
6567;BME280;3317;43.994;22.878;2023-02-28T02:37:05;101952.63;;;6.75;67.73
6567;BME280;3317;43.994;22.878;2023-02-28T02:39:40;101950.72;;;6.77;67.68
6567;BME280;3317;43.994;22.878;2023-02-28T02:42:14;101960.53;;;6.78;66.91
6567;BME280;3317;43.994;22.878;2023-02-28T02:44:48;101959.56;;;6.79;66.91
6567;BME280;3317;43.994;22.878;2023-02-28T02:47:20;101957.63;;;6.81;67.25
6567;BME280;3317;43.994;22.878;2023-02-28T02:49:52;101958.38;;;6.83;67.55
6567;BME280;3317;43.994;22.878;2023-02-28T02:52:24;101943.09;;;6.84;66.77
6567;BME280;3317;43.994;22.878;2023-02-28T02:57:45;101935.00;;;6.84;67.60
6567;BME280;3317;43.994;22.878;2023-02-28T03:00:15;101939.94;;;6.77;68.89
6567;BME280;3317;43.994;22.878;2023-02-28T03:02:44;101941.69;;;6.64;68.98
6567;BME280;3317;43.994;22.878;2023-02-28T03:05:19;101942.19;;;6.56;68.26
6567;BME280;3317;43.994;22.878;2023-02-28T03:07:47;101959.56;;;6.65;68.19
6567;BME280;3317;43.994;22.878;2023-02-28T03:10:35;101949.78;;;6.64;68.17
6567;BME280;3317;43.994;22.878;2023-02-28T03:18:52;101970.72;;;6.58;68.55
6567;BME280;3317;43.994;22.878;2023-02-28T03:21:27;101987.84;;;6.57;68.94
6567;BME280;3317;43.994;22.878;2023-02-28T03:23:59;101986.81;;;6.60;69.24
6567;BME280;3317;43.994;22.878;2023-02-28T03:26:31;101997.94;;;6.54;69.89
6567;BME280;3317;43.994;22.878;2023-02-28T03:29:03;101985.94;;;6.45;70.30
6567;BME280;3317;43.994;22.878;2023-02-28T03:31:35;102006.03;;;6.54;69.67
6567;BME280;3317;43.994;22.878;2023-02-28T03:34:08;102000.47;;;6.57;69.09
6567;BME280;3317;43.994;22.878;2023-02-28T03:36:42;102016.63;;;6.57;69.25
6567;BME280;3317;43.994;22.878;2023-02-28T03:39:15;102021.25;;;6.55;69.43
6567;BME280;3317;43.994;22.878;2023-02-28T03:41:45;102004.63;;;6.48;69.47
6567;BME280;3317;43.994;22.878;2023-02-28T03:44:17;102006.50;;;6.46;69.43
6567;BME280;3317;43.994;22.878;2023-02-28T03:46:49;102020.00;;;6.60;69.09
6567;BME280;3317;43.994;22.878;2023-02-28T03:49:22;102010.38;;;6.56;68.36
6567;BME280;3317;43.994;22.878;2023-02-28T03:51:52;102017.41;;;6.59;69.53
6567;BME280;3317;43.994;22.878;2023-02-28T03:54:24;102018.66;;;6.53;69.07
6567;BME280;3317;43.994;22.878;2023-02-28T03:56:57;102030.94;;;6.57;68.91
6567;BME280;3317;43.994;22.878;2023-02-28T03:59:28;102023.84;;;6.56;68.90
6567;BME280;3317;43.994;22.878;2023-02-28T04:01:59;102027.41;;;6.57;69.16
6567;BME280;3317;43.994;22.878;2023-02-28T04:04:26;102033.75;;;6.56;69.21
6567;BME280;3317;43.994;22.878;2023-02-28T04:07:01;102030.88;;;6.59;69.58
6567;BME280;3317;43.994;22.878;2023-02-28T04:09:28;102028.47;;;6.54;70.22
6567;BME280;3317;43.994;22.878;2023-02-28T04:11:55;102026.94;;;6.50;71.51
6567;BME280;3317;43.994;22.878;2023-02-28T04:14:22;102032.88;;;6.55;71.27
6567;BME280;3317;43.994;22.878;2023-02-28T04:16:49;102031.06;;;6.56;70.67
6567;BME280;3317;43.994;22.878;2023-02-28T04:19:18;102020.28;;;6.41;70.15
6567;BME280;3317;43.994;22.878;2023-02-28T04:21:46;102035.16;;;6.47;70.13
6567;BME280;3317;43.994;22.878;2023-02-28T04:24:16;102032.41;;;6.48;70.69
6567;BME280;3317;43.994;22.878;2023-02-28T04:26:45;102040.56;;;6.47;71.35
6567;BME280;3317;43.994;22.878;2023-02-28T04:29:14;102031.84;;;6.43;72.13
6567;BME280;3317;43.994;22.878;2023-02-28T04:31:44;102042.31;;;6.48;72.93
6567;BME280;3317;43.994;22.878;2023-02-28T04:34:11;102042.47;;;6.45;73.42
6567;BME280;3317;43.994;22.878;2023-02-28T04:36:39;102044.59;;;6.40;74.38
6567;BME280;3317;43.994;22.878;2023-02-28T04:39:05;102033.34;;;6.33;75.51
6567;BME280;3317;43.994;22.878;2023-02-28T04:41:34;102029.47;;;6.23;76.76
6567;BME280;3317;43.994;22.878;2023-02-28T04:44:01;102028.03;;;6.17;77.47
6567;BME280;3317;43.994;22.878;2023-02-28T04:46:27;102026.75;;;6.08;78.51
6567;BME280;3317;43.994;22.878;2023-02-28T04:48:55;102031.69;;;6.00;79.44
6567;BME280;3317;43.994;22.878;2023-02-28T04:51:23;102029.28;;;5.95;79.94
6567;BME280;3317;43.994;22.878;2023-02-28T04:53:50;102030.03;;;5.83;81.06
6567;BME280;3317;43.994;22.878;2023-02-28T04:56:18;102035.97;;;5.73;81.59
6567;BME280;3317;43.994;22.878;2023-02-28T04:58:47;102029.00;;;5.69;82.49
6567;BME280;3317;43.994;22.878;2023-02-28T05:01:19;102039.44;;;5.59;83.38
6567;BME280;3317;43.994;22.878;2023-02-28T05:03:47;102039.63;;;5.56;83.93
6567;BME280;3317;43.994;22.878;2023-02-28T05:06:15;102041.34;;;5.57;84.45
6567;BME280;3317;43.994;22.878;2023-02-28T05:08:42;102042.41;;;5.55;85.13
6567;BME280;3317;43.994;22.878;2023-02-28T05:11:14;102036.69;;;5.45;85.91
6567;BME280;3317;43.994;22.878;2023-02-28T05:13:41;102037.72;;;5.42;86.27
6567;BME280;3317;43.994;22.878;2023-02-28T05:16:09;102039.44;;;5.43;86.79
6567;BME280;3317;43.994;22.878;2023-02-28T05:18:36;102048.84;;;5.36;87.49
6567;BME280;3317;43.994;22.878;2023-02-28T05:21:04;102058.38;;;5.42;87.75
6567;BME280;3317;43.994;22.878;2023-02-28T05:23:31;102054.22;;;5.36;88.44
6567;BME280;3317;43.994;22.878;2023-02-28T05:25:58;102060.81;;;5.30;89.23
6567;BME280;3317;43.994;22.878;2023-02-28T05:28:25;102067.31;;;5.26;89.75
6567;BME280;3317;43.994;22.878;2023-02-28T05:30:52;102078.16;;;5.25;90.15
6567;BME280;3317;43.994;22.878;2023-02-28T05:33:21;102080.75;;;5.26;90.27
6567;BME280;3317;43.994;22.878;2023-02-28T05:35:48;102084.41;;;5.25;90.73
6567;BME280;3317;43.994;22.878;2023-02-28T05:38:14;102089.09;;;5.21;91.01
6567;BME280;3317;43.994;22.878;2023-02-28T05:40:42;102091.31;;;5.13;90.95
6567;BME280;3317;43.994;22.878;2023-02-28T05:43:10;102084.88;;;5.00;91.23
6567;BME280;3317;43.994;22.878;2023-02-28T05:45:38;102104.41;;;5.03;91.80
6567;BME280;3317;43.994;22.878;2023-02-28T05:48:05;102086.91;;;5.12;91.36
6567;BME280;3317;43.994;22.878;2023-02-28T05:50:34;102093.28;;;5.10;91.53
6567;BME280;3317;43.994;22.878;2023-02-28T05:53:01;102105.41;;;5.01;91.73
6567;BME280;3317;43.994;22.878;2023-02-28T05:55:28;102087.06;;;5.09;91.80
6567;BME280;3317;43.994;22.878;2023-02-28T05:57:55;102086.38;;;5.05;91.57
6567;BME280;3317;43.994;22.878;2023-02-28T06:00:22;102089.59;;;5.12;91.85
6567;BME280;3317;43.994;22.878;2023-02-28T06:02:49;102093.22;;;5.11;91.59
6567;BME280;3317;43.994;22.878;2023-02-28T06:05:18;102106.06;;;5.06;91.70
6567;BME280;3317;43.994;22.878;2023-02-28T06:07:47;102102.41;;;5.07;92.30
6567;BME280;3317;43.994;22.878;2023-02-28T06:10:13;102109.16;;;5.14;92.30
6567;BME280;3317;43.994;22.878;2023-02-28T06:12:41;102116.22;;;5.17;91.46
6567;BME280;3317;43.994;22.878;2023-02-28T06:15:11;102115.06;;;5.21;91.50
6567;BME280;3317;43.994;22.878;2023-02-28T06:17:38;102114.38;;;5.17;91.62
6567;BME280;3317;43.994;22.878;2023-02-28T06:20:06;102113.28;;;5.21;92.04
6567;BME280;3317;43.994;22.878;2023-02-28T06:22:34;102123.91;;;5.23;91.78
6567;BME280;3317;43.994;22.878;2023-02-28T06:25:04;102118.91;;;5.17;92.10
6567;BME280;3317;43.994;22.878;2023-02-28T06:27:31;102116.13;;;5.18;92.28
6567;BME280;3317;43.994;22.878;2023-02-28T06:29:58;102107.53;;;5.12;91.83
6567;BME280;3317;43.994;22.878;2023-02-28T06:32:25;102119.56;;;5.04;91.63
6567;BME280;3317;43.994;22.878;2023-02-28T06:34:52;102132.22;;;5.02;91.59
6567;BME280;3317;43.994;22.878;2023-02-28T06:37:19;102140.53;;;4.98;91.78
6567;BME280;3317;43.994;22.878;2023-02-28T06:39:46;102136.22;;;5.11;91.02
6567;BME280;3317;43.994;22.878;2023-02-28T06:42:14;102138.91;;;5.11;90.69
6567;BME280;3317;43.994;22.878;2023-02-28T06:44:41;102130.31;;;5.04;90.65
6567;BME280;3317;43.994;22.878;2023-02-28T06:47:08;102137.66;;;5.01;90.87
6567;BME280;3317;43.994;22.878;2023-02-28T06:49:35;102133.25;;;5.00;91.52
6567;BME280;3317;43.994;22.878;2023-02-28T06:52:04;102138.09;;;4.93;92.05
6567;BME280;3317;43.994;22.878;2023-02-28T06:54:31;102145.38;;;4.91;92.20
6567;BME280;3317;43.994;22.878;2023-02-28T06:56:58;102147.97;;;4.92;92.07
6567;BME280;3317;43.994;22.878;2023-02-28T06:59:26;102147.34;;;4.87;92.25
6567;BME280;3317;43.994;22.878;2023-02-28T07:01:53;102155.41;;;4.87;92.35
6567;BME280;3317;43.994;22.878;2023-02-28T07:04:20;102139.09;;;4.90;92.72
6567;BME280;3317;43.994;22.878;2023-02-28T07:06:47;102131.03;;;4.90;92.67
6567;BME280;3317;43.994;22.878;2023-02-28T07:09:14;102148.84;;;4.93;92.50
6567;BME280;3317;43.994;22.878;2023-02-28T07:11:41;102144.47;;;4.90;92.81
6567;BME280;3317;43.994;22.878;2023-02-28T07:14:09;102148.53;;;4.82;92.92
6567;BME280;3317;43.994;22.878;2023-02-28T07:16:37;102157.53;;;4.81;93.18
6567;BME280;3317;43.994;22.878;2023-02-28T07:19:04;102149.19;;;4.87;93.24
6567;BME280;3317;43.994;22.878;2023-02-28T07:21:31;102146.56;;;4.85;93.86
6567;BME280;3317;43.994;22.878;2023-02-28T07:23:58;102141.25;;;4.84;93.68
6567;BME280;3317;43.994;22.878;2023-02-28T07:26:25;102145.06;;;4.79;93.86
6567;BME280;3317;43.994;22.878;2023-02-28T07:28:51;102142.06;;;4.86;93.92
6567;BME280;3317;43.994;22.878;2023-02-28T07:31:19;102155.03;;;4.77;94.15
6567;BME280;3317;43.994;22.878;2023-02-28T07:33:47;102146.88;;;4.79;93.95
6567;BME280;3317;43.994;22.878;2023-02-28T07:36:16;102142.13;;;4.84;94.25
6567;BME280;3317;43.994;22.878;2023-02-28T07:38:45;102153.13;;;4.79;94.29
6567;BME280;3317;43.994;22.878;2023-02-28T07:41:13;102149.41;;;4.82;94.51
6567;BME280;3317;43.994;22.878;2023-02-28T07:43:40;102150.38;;;4.81;94.55
6567;BME280;3317;43.994;22.878;2023-02-28T07:46:08;102137.41;;;4.72;94.55
6567;BME280;3317;43.994;22.878;2023-02-28T07:48:36;102151.31;;;4.80;95.10
6567;BME280;3317;43.994;22.878;2023-02-28T07:51:04;102163.47;;;4.87;94.78
6567;BME280;3317;43.994;22.878;2023-02-28T07:53:32;102172.00;;;4.96;94.49
6567;BME280;3317;43.994;22.878;2023-02-28T07:56:00;102186.22;;;4.98;94.07
6567;BME280;3317;43.994;22.878;2023-02-28T07:58:28;102180.91;;;4.96;93.83
6567;BME280;3317;43.994;22.878;2023-02-28T08:00:55;102187.41;;;4.92;94.14
6567;BME280;3317;43.994;22.878;2023-02-28T08:03:23;102183.44;;;4.99;93.88
6567;BME280;3317;43.994;22.878;2023-02-28T08:05:50;102183.09;;;5.05;93.36
6567;BME280;3317;43.994;22.878;2023-02-28T08:08:20;102190.03;;;4.93;93.56
6567;BME280;3317;43.994;22.878;2023-02-28T08:10:46;102172.06;;;4.94;93.81
6567;BME280;3317;43.994;22.878;2023-02-28T08:13:13;102191.75;;;4.95;93.77
6567;BME280;3317;43.994;22.878;2023-02-28T08:15:41;102181.00;;;4.95;93.62
6567;BME280;3317;43.994;22.878;2023-02-28T08:18:08;102188.91;;;4.98;93.35
6567;BME280;3317;43.994;22.878;2023-02-28T08:20:35;102190.81;;;4.96;93.29
6567;BME280;3317;43.994;22.878;2023-02-28T08:23:02;102182.31;;;5.03;92.74
6567;BME280;3317;43.994;22.878;2023-02-28T08:25:30;102189.75;;;4.98;92.71
6567;BME280;3317;43.994;22.878;2023-02-28T08:27:57;102193.00;;;4.87;92.95
6567;BME280;3317;43.994;22.878;2023-02-28T08:30:24;102202.03;;;4.86;93.18
6567;BME280;3317;43.994;22.878;2023-02-28T08:32:51;102189.53;;;4.85;92.82
6567;BME280;3317;43.994;22.878;2023-02-28T08:35:18;102200.44;;;4.82;93.14
6567;BME280;3317;43.994;22.878;2023-02-28T08:37:47;102198.72;;;4.81;93.51
6567;BME280;3317;43.994;22.878;2023-02-28T08:40:14;102179.59;;;4.70;93.53
6567;BME280;3317;43.994;22.878;2023-02-28T08:42:45;102174.13;;;4.71;93.69
6567;BME280;3317;43.994;22.878;2023-02-28T08:45:13;102179.69;;;4.86;93.99
6567;BME280;3317;43.994;22.878;2023-02-28T08:47:40;102182.38;;;4.86;94.32
6567;BME280;3317;43.994;22.878;2023-02-28T08:50:08;102189.91;;;4.95;94.15
6567;BME280;3317;43.994;22.878;2023-02-28T08:52:35;102190.81;;;4.96;94.00
6567;BME280;3317;43.994;22.878;2023-02-28T08:55:04;102196.47;;;4.89;94.58
6567;BME280;3317;43.994;22.878;2023-02-28T08:57:31;102191.03;;;4.91;94.45
6567;BME280;3317;43.994;22.878;2023-02-28T09:00:00;102212.53;;;4.91;94.26
6567;BME280;3317;43.994;22.878;2023-02-28T09:02:29;102201.72;;;4.92;94.03
6567;BME280;3317;43.994;22.878;2023-02-28T09:04:56;102208.34;;;4.85;93.85
6567;BME280;3317;43.994;22.878;2023-02-28T09:07:23;102215.03;;;4.94;94.34
6567;BME280;3317;43.994;22.878;2023-02-28T09:09:50;102203.94;;;4.84;94.40
6567;BME280;3317;43.994;22.878;2023-02-28T09:12:20;102210.88;;;4.88;94.38
6567;BME280;3317;43.994;22.878;2023-02-28T09:14:47;102207.47;;;4.85;94.68
6567;BME280;3317;43.994;22.878;2023-02-28T09:17:16;102212.75;;;4.86;94.88
6567;BME280;3317;43.994;22.878;2023-02-28T09:19:43;102191.81;;;4.93;95.09
6567;BME280;3317;43.994;22.878;2023-02-28T09:22:10;102198.75;;;4.97;95.16
6567;BME280;3317;43.994;22.878;2023-02-28T09:24:37;102201.72;;;4.92;95.28
6567;BME280;3317;43.994;22.878;2023-02-28T09:27:05;102194.34;;;4.96;95.57
6567;BME280;3317;43.994;22.878;2023-02-28T09:29:33;102190.16;;;4.90;95.73
6567;BME280;3317;43.994;22.878;2023-02-28T09:32:00;102182.25;;;4.87;95.83
6567;BME280;3317;43.994;22.878;2023-02-28T09:34:28;102185.72;;;4.89;96.25
6567;BME280;3317;43.994;22.878;2023-02-28T09:36:57;102184.78;;;4.90;95.82
6567;BME280;3317;43.994;22.878;2023-02-28T09:39:24;102192.84;;;4.90;96.00
6567;BME280;3317;43.994;22.878;2023-02-28T09:41:53;102195.13;;;4.98;95.96
6567;BME280;3317;43.994;22.878;2023-02-28T09:44:26;102203.13;;;5.00;95.80
6567;BME280;3317;43.994;22.878;2023-02-28T09:46:57;102198.75;;;4.97;95.84
6567;BME280;3317;43.994;22.878;2023-02-28T09:49:34;102204.00;;;5.00;95.32
6567;BME280;3317;43.994;22.878;2023-02-28T09:52:07;102200.66;;;4.95;95.77
6567;BME280;3317;43.994;22.878;2023-02-28T09:54:36;102192.53;;;4.97;95.53
6567;BME280;3317;43.994;22.878;2023-02-28T09:57:07;102133.56;;;4.60;95.58
6567;BME280;3317;43.994;22.878;2023-02-28T10:00:03;102201.03;;;5.05;95.41
6567;BME280;3317;43.994;22.878;2023-02-28T10:02:51;102194.09;;;5.01;95.25
6567;BME280;3317;43.994;22.878;2023-02-28T10:05:27;102194.88;;;5.03;94.13
6567;BME280;3317;43.994;22.878;2023-02-28T10:08:02;102203.28;;;4.97;94.40
6567;BME280;3317;43.994;22.878;2023-02-28T10:10:36;102199.88;;;4.93;94.74
6567;BME280;3317;43.994;22.878;2023-02-28T10:13:05;102196.78;;;5.01;94.31
6567;BME280;3317;43.994;22.878;2023-02-28T10:15:37;102208.41;;;5.01;94.60
6567;BME280;3317;43.994;22.878;2023-02-28T10:18:11;102222.94;;;4.97;95.01
6567;BME280;3317;43.994;22.878;2023-02-28T10:20:42;102217.75;;;4.94;94.97
6567;BME280;3317;43.994;22.878;2023-02-28T10:23:16;102218.75;;;4.91;94.91
6567;BME280;3317;43.994;22.878;2023-02-28T10:25:47;102220.81;;;4.86;95.10
6567;BME280;3317;43.994;22.878;2023-02-28T10:28:17;102226.97;;;4.88;95.20
6567;BME280;3317;43.994;22.878;2023-02-28T10:30:46;102230.78;;;4.84;95.11
6567;BME280;3317;43.994;22.878;2023-02-28T10:33:19;102218.31;;;4.83;95.09
6567;BME280;3317;43.994;22.878;2023-02-28T10:35:49;102215.78;;;4.80;95.67
6567;BME280;3317;43.994;22.878;2023-02-28T10:38:19;102222.50;;;4.89;95.73
6567;BME280;3317;43.994;22.878;2023-02-28T10:40:47;102215.22;;;4.91;95.29
6567;BME280;3317;43.994;22.878;2023-02-28T10:43:21;102206.03;;;4.95;95.42
6567;BME280;3317;43.994;22.878;2023-02-28T10:45:56;102196.59;;;4.88;95.39
6567;BME280;3317;43.994;22.878;2023-02-28T10:48:30;102198.84;;;4.96;95.39
6567;BME280;3317;43.994;22.878;2023-02-28T10:51:00;102190.81;;;4.96;95.23
6567;BME280;3317;43.994;22.878;2023-02-28T10:53:32;102191.03;;;4.91;95.36
6567;BME280;3317;43.994;22.878;2023-02-28T10:56:01;102133.72;;;4.74;94.87
6567;BME280;3317;43.994;22.878;2023-02-28T10:58:31;102196.91;;;5.15;94.33
6567;BME280;3317;43.994;22.878;2023-02-28T11:00:59;102198.28;;;5.06;94.88
6567;BME280;3317;43.994;22.878;2023-02-28T11:03:32;102192.19;;;5.03;95.06
6567;BME280;3317;43.994;22.878;2023-02-28T11:06:06;102167.41;;;4.98;94.89
6567;BME280;3317;43.994;22.878;2023-02-28T11:08:53;102189.50;;;5.03;94.64
6567;BME280;3317;43.994;22.878;2023-02-28T11:11:23;102171.56;;;5.03;94.63
6567;BME280;3317;43.994;22.878;2023-02-28T11:13:52;102180.66;;;5.01;95.49
6567;BME280;3317;43.994;22.878;2023-02-28T11:16:20;102156.22;;;5.05;95.42
6567;BME280;3317;43.994;22.878;2023-02-28T11:18:49;102159.81;;;5.06;95.61
6567;BME280;3317;43.994;22.878;2023-02-28T11:21:21;102163.16;;;5.10;95.60
6567;BME280;3317;43.994;22.878;2023-02-28T11:23:51;102169.66;;;5.05;96.01
6567;BME280;3317;43.994;22.878;2023-02-28T11:26:37;102161.38;;;5.10;95.55
6567;BME280;3317;43.994;22.878;2023-02-28T11:29:11;102166.91;;;5.07;96.33
6567;BME280;3317;43.994;22.878;2023-02-28T11:31:38;102166.03;;;5.06;95.86
6567;BME280;3317;43.994;22.878;2023-02-28T11:34:22;102168.13;;;5.17;96.00
6567;BME280;3317;43.994;22.878;2023-02-28T11:36:51;102174.63;;;5.13;95.64
6567;BME280;3317;43.994;22.878;2023-02-28T11:39:19;102167.53;;;5.12;95.58
6567;BME280;3317;43.994;22.878;2023-02-28T11:42:02;102143.69;;;5.06;95.03
6567;BME280;3317;43.994;22.878;2023-02-28T11:44:42;102162.44;;;5.24;94.75
6567;BME280;3317;43.994;22.878;2023-02-28T11:47:17;102157.56;;;5.14;95.09
6567;BME280;3317;43.994;22.878;2023-02-28T11:49:54;102155.63;;;5.16;95.25
6567;BME280;3317;43.994;22.878;2023-02-28T11:52:46;102147.84;;;5.12;94.87
6567;BME280;3317;43.994;22.878;2023-02-28T11:55:17;102146.09;;;5.11;94.96
6567;BME280;3317;43.994;22.878;2023-02-28T11:58:05;102163.09;;;5.11;95.21
6567;BME280;3317;43.994;22.878;2023-02-28T12:00:40;102149.94;;;5.22;95.07
6567;BME280;3317;43.994;22.878;2023-02-28T12:03:22;102152.34;;;5.11;94.70
6567;BME280;3317;43.994;22.878;2023-02-28T12:05:58;102146.78;;;5.14;94.38
6567;BME280;3317;43.994;22.878;2023-02-28T12:08:42;102145.78;;;5.17;94.49
6567;BME280;3317;43.994;22.878;2023-02-28T12:11:18;102148.38;;;5.18;94.79
6567;BME280;3317;43.994;22.878;2023-02-28T12:13:53;102157.22;;;5.20;94.57
6567;BME280;3317;43.994;22.878;2023-02-28T12:16:37;102156.88;;;5.27;94.18
6567;BME280;3317;43.994;22.878;2023-02-28T12:19:16;102159.16;;;5.34;94.03
6567;BME280;3317;43.994;22.878;2023-02-28T12:21:59;102156.72;;;5.30;93.90
6567;BME280;3317;43.994;22.878;2023-02-28T12:24:43;102171.63;;;5.35;93.76
6567;BME280;3317;43.994;22.878;2023-02-28T12:27:17;102165.06;;;5.41;93.55
6567;BME280;3317;43.994;22.878;2023-02-28T12:29:49;102163.50;;;5.37;93.32
6567;BME280;3317;43.994;22.878;2023-02-28T12:32:19;102167.06;;;5.38;93.49
6567;BME280;3317;43.994;22.878;2023-02-28T12:34:50;102151.59;;;5.41;93.11
6567;BME280;3317;43.994;22.878;2023-02-28T12:37:22;102151.34;;;5.46;93.19
6567;BME280;3317;43.994;22.878;2023-02-28T12:39:56;102145.97;;;5.46;93.24
6567;BME280;3317;43.994;22.878;2023-02-28T12:42:29;102119.25;;;5.27;93.63
6567;BME280;3317;43.994;22.878;2023-02-28T12:44:59;102157.09;;;5.40;93.75
6567;BME280;3317;43.994;22.878;2023-02-28T12:47:27;102137.75;;;5.33;93.92
6567;BME280;3317;43.994;22.878;2023-02-28T12:49:58;102095.22;;;5.24;93.71
6567;BME280;3317;43.994;22.878;2023-02-28T12:52:34;102129.00;;;5.45;93.36
6567;BME280;3317;43.994;22.878;2023-02-28T12:55:11;102136.19;;;5.45;93.58
6567;BME280;3317;43.994;22.878;2023-02-28T12:57:44;102135.94;;;5.49;93.51
6567;BME280;3317;43.994;22.878;2023-02-28T13:00:14;102130.19;;;5.40;93.74
6567;BME280;3317;43.994;22.878;2023-02-28T13:03:04;102140.34;;;5.50;93.60
6567;BME280;3317;43.994;22.878;2023-02-28T13:06:05;102142.84;;;5.54;93.77
6567;BME280;3317;43.994;22.878;2023-02-28T13:08:59;102144.59;;;5.55;93.22
6567;BME280;3317;43.994;22.878;2023-02-28T13:11:32;102138.44;;;5.53;93.31
6567;BME280;3317;43.994;22.878;2023-02-28T13:14:02;102125.16;;;5.49;92.99
6567;BME280;3317;43.994;22.878;2023-02-28T13:16:53;102130.47;;;5.51;92.70
6567;BME280;3317;43.994;22.878;2023-02-28T13:19:22;102129.66;;;5.49;92.35
6567;BME280;3317;43.994;22.878;2023-02-28T13:21:50;102128.81;;;5.48;92.46
6567;BME280;3317;43.994;22.878;2023-02-28T13:24:40;102119.78;;;5.49;92.55
6567;BME280;3317;43.994;22.878;2023-02-28T13:27:21;102117.03;;;5.51;93.05
6567;BME280;3317;43.994;22.878;2023-02-28T13:29:51;102123.63;;;5.45;92.98
6567;BME280;3317;43.994;22.878;2023-02-28T13:32:42;102118.75;;;5.52;92.69
6567;BME280;3317;43.994;22.878;2023-02-28T13:38:20;102117.81;;;5.53;92.78
6567;BME280;3317;43.994;22.878;2023-02-28T13:40:48;102115.53;;;5.45;92.56
6567;BME280;3317;43.994;22.878;2023-02-28T13:43:18;102108.16;;;5.49;92.18
6567;BME280;3317;43.994;22.878;2023-02-28T13:46:05;102114.22;;;5.53;92.24